createdAt,value
2017-12-28T00:00:03.799Z,2.5
2017-12-28T00:05:03.071Z,2.7
2017-12-28T00:10:02.605Z,2.5
2017-12-28T00:15:03.131Z,2.5
2017-12-28T00:20:02.623Z,2.7
2017-12-28T00:25:03.123Z,2.7
2017-12-28T00:30:02.655Z,2.9
2017-12-28T00:35:03.207Z,2.9
2017-12-28T00:40:02.706Z,2.7
2017-12-28T00:45:03.141Z,2.7
2017-12-28T00:50:02.722Z,2.7
2017-12-28T00:55:03.238Z,2.7
2017-12-28T01:00:02.660Z,2.9
2017-12-28T01:05:02.621Z,2.9
2017-12-28T01:10:02.549Z,2.7
2017-12-28T01:15:03.059Z,2.7
2017-12-28T01:20:02.643Z,2.7
2017-12-28T01:25:03.150Z,2.9
2017-12-28T01:30:02.722Z,2.7
2017-12-28T01:35:03.332Z,2.9
2017-12-28T01:40:03.004Z,2.7
2017-12-28T01:45:02.464Z,2.7
2017-12-28T01:50:03.083Z,2.7
2017-12-28T01:55:02.642Z,2.5
2017-12-28T02:00:03.153Z,2.5
2017-12-28T02:05:02.573Z,2.5
2017-12-28T02:10:03.082Z,2.4
2017-12-28T02:15:02.634Z,2.4
2017-12-28T02:20:03.191Z,2.4
2017-12-28T02:25:02.683Z,2.2
2017-12-28T02:30:03.109Z,2.2
2017-12-28T02:35:02.547Z,2.0
2017-12-28T02:40:03.038Z,2.0
2017-12-28T02:45:02.454Z,2.0
2017-12-28T02:50:03.052Z,1.8
2017-12-28T02:55:02.562Z,1.8
2017-12-28T03:00:03.162Z,1.7
2017-12-28T03:05:02.599Z,1.8
2017-12-28T03:10:03.248Z,1.8
2017-12-28T03:15:02.814Z,1.8
2017-12-28T03:20:03.273Z,1.8
2017-12-28T03:25:02.666Z,1.8
2017-12-28T03:30:03.176Z,2.0
2017-12-28T03:35:02.703Z,2.0
2017-12-28T03:40:03.334Z,2.2
2017-12-28T03:45:02.865Z,2.2
2017-12-28T03:50:03.317Z,2.4
2017-12-28T03:55:02.783Z,2.4
2017-12-28T04:00:03.638Z,2.4
2017-12-28T04:05:03.142Z,2.4
2017-12-28T04:10:02.728Z,2.5
2017-12-28T04:15:03.177Z,2.4
2017-12-28T04:20:02.681Z,2.4
2017-12-28T04:25:03.097Z,2.2
2017-12-28T04:30:02.635Z,2.2
2017-12-28T04:35:03.145Z,2.5
2017-12-28T04:40:02.729Z,2.5
2017-12-28T04:45:03.335Z,2.5
2017-12-28T04:50:02.964Z,2.5
2017-12-28T04:55:02.538Z,2.5
2017-12-28T05:00:03.309Z,2.5
2017-12-28T05:05:02.800Z,2.5
2017-12-28T05:10:02.493Z,2.5
2017-12-28T05:15:03.034Z,2.4
2017-12-28T05:20:02.535Z,2.4
2017-12-28T05:25:03.084Z,2.4
2017-12-28T05:30:03.077Z,2.2
2017-12-28T05:35:02.564Z,2.2
2017-12-28T05:40:03.180Z,2.2
2017-12-28T05:45:02.930Z,2.0
2017-12-28T05:50:02.384Z,2.0
2017-12-28T05:55:02.862Z,2.0
2017-12-28T06:00:02.416Z,1.8
2017-12-28T06:05:02.947Z,1.8
2017-12-28T06:10:02.569Z,1.8
2017-12-28T06:15:03.109Z,1.7
2017-12-28T06:20:02.685Z,1.8
2017-12-28T06:25:03.278Z,1.8
2017-12-28T06:30:02.756Z,1.7
2017-12-28T06:35:03.308Z,1.7
2017-12-28T06:40:02.452Z,1.7
2017-12-28T06:45:03.007Z,1.7
2017-12-28T06:50:02.511Z,1.7
2017-12-28T06:55:02.998Z,1.6
2017-12-28T07:00:02.546Z,1.7
2017-12-28T07:05:03.115Z,1.6
2017-12-28T07:10:02.616Z,1.6
2017-12-28T07:15:03.127Z,1.6
2017-12-28T07:20:02.743Z,1.7
2017-12-28T07:25:03.212Z,1.8
2017-12-28T07:30:02.861Z,1.8
2017-12-28T07:35:02.466Z,2.0
2017-12-28T07:40:03.100Z,2.0
2017-12-28T07:45:02.685Z,2.4
2017-12-28T07:50:03.122Z,2.4
2017-12-28T07:55:02.729Z,2.4
2017-12-28T08:00:03.286Z,2.4
2017-12-28T08:05:02.734Z,2.2
2017-12-28T08:10:03.231Z,2.2
2017-12-28T08:15:02.662Z,2.0
2017-12-28T08:20:03.298Z,2.0
2017-12-28T08:25:02.951Z,2.0
2017-12-28T08:30:02.760Z,2.0
2017-12-28T08:35:03.212Z,1.8
2017-12-28T08:40:02.720Z,2.0
2017-12-28T08:45:03.220Z,1.8
2017-12-28T08:50:02.811Z,2.0
2017-12-28T08:55:02.444Z,2.0
2017-12-28T09:00:02.851Z,2.2
2017-12-28T09:05:03.314Z,2.4
2017-12-28T09:10:02.879Z,2.4
2017-12-28T09:15:02.500Z,2.5
2017-12-28T09:20:03.240Z,2.9
2017-12-28T09:25:02.928Z,3.0
2017-12-28T09:30:02.592Z,3.2
2017-12-28T09:35:03.108Z,3.5
2017-12-28T09:40:02.735Z,3.5
2017-12-28T09:45:03.192Z,3.7
2017-12-28T09:50:02.689Z,3.7
2017-12-28T09:55:03.342Z,3.7
2017-12-28T10:00:02.758Z,3.2
2017-12-28T10:05:02.483Z,3.2
2017-12-28T10:10:03.054Z,4.0
2017-12-28T10:15:02.485Z,4.0
2017-12-28T10:20:03.027Z,4.3
2017-12-28T10:25:02.607Z,4.8
2017-12-28T10:30:03.206Z,4.8
2017-12-28T10:35:02.796Z,5.0
2017-12-28T10:40:03.396Z,5.0
2017-12-28T10:45:02.963Z,5.0
2017-12-28T10:50:02.521Z,5.0
2017-12-28T10:55:03.109Z,4.8
2017-12-28T11:00:02.731Z,5.0
2017-12-28T11:05:03.184Z,5.0
2017-12-28T11:10:02.870Z,5.4
2017-12-28T11:15:03.318Z,5.3
2017-12-28T11:20:02.817Z,5.0
2017-12-28T11:25:02.333Z,5.3
2017-12-28T11:30:02.864Z,5.3
2017-12-28T11:35:03.339Z,5.3
2017-12-28T11:40:02.984Z,5.0
2017-12-28T11:45:02.623Z,5.0
2017-12-28T11:50:03.376Z,5.0
2017-12-28T11:55:02.906Z,5.0
2017-12-28T12:00:02.435Z,5.0
2017-12-28T12:05:03.119Z,4.8
2017-12-28T12:10:02.700Z,4.8
2017-12-28T12:15:03.141Z,4.5
2017-12-28T12:20:02.815Z,4.5
2017-12-28T12:25:03.256Z,4.5
2017-12-28T12:30:02.763Z,4.3
2017-12-28T12:35:03.235Z,4.3
2017-12-28T12:40:02.814Z,4.3
2017-12-28T12:45:03.288Z,4.3
2017-12-28T12:50:02.769Z,4.0
2017-12-28T12:55:03.252Z,4.3
2017-12-28T13:00:02.821Z,4.3
2017-12-28T13:05:02.442Z,4.3
2017-12-28T13:10:02.991Z,4.3
2017-12-28T13:15:02.604Z,4.3
2017-12-28T13:20:02.387Z,4.0
2017-12-28T13:25:03.004Z,3.7
2017-12-28T13:30:02.497Z,4.0
2017-12-28T13:35:03.073Z,4.0
2017-12-28T13:40:02.771Z,3.7
2017-12-28T13:45:03.332Z,4.0
2017-12-28T13:50:02.995Z,3.7
2017-12-28T13:55:02.653Z,3.7
2017-12-28T14:00:03.133Z,4.0
2017-12-28T14:05:02.698Z,4.5
2017-12-28T14:10:03.303Z,4.5
2017-12-28T14:15:02.881Z,4.5
2017-12-28T14:20:02.543Z,4.8
2017-12-28T14:25:02.977Z,4.8
2017-12-28T14:30:02.547Z,4.5
2017-12-28T14:35:03.199Z,4.3
2017-12-28T14:40:02.867Z,4.3
2017-12-28T14:45:02.551Z,4.0
2017-12-28T14:50:03.232Z,3.7
2017-12-28T14:55:02.684Z,3.7
2017-12-28T15:00:03.263Z,3.7
2017-12-28T15:05:03.137Z,3.5
2017-12-28T15:10:02.843Z,3.2
2017-12-28T15:15:02.447Z,3.2
2017-12-28T15:20:03.109Z,3.2
2017-12-28T15:25:02.578Z,3.2
2017-12-28T15:30:03.042Z,3.5
2017-12-28T15:35:02.640Z,3.2
2017-12-28T15:40:03.204Z,3.5
2017-12-28T15:45:02.737Z,3.7
2017-12-28T15:50:02.412Z,3.5
2017-12-28T15:55:02.910Z,3.5
2017-12-28T16:00:02.470Z,3.5
2017-12-28T16:05:03.098Z,3.5
2017-12-28T16:10:02.743Z,3.5
2017-12-28T16:20:03.102Z,3.2
2017-12-28T16:25:02.734Z,3.2
2017-12-28T16:30:03.189Z,3.2
2017-12-28T16:35:02.902Z,3.2
2017-12-28T16:40:02.619Z,3.2
2017-12-28T16:45:03.202Z,3.2
2017-12-28T16:50:02.838Z,3.2
2017-12-28T16:55:02.441Z,3.2
2017-12-28T17:00:03.146Z,3.2
2017-12-28T17:05:02.660Z,3.2
2017-12-28T17:10:03.300Z,3.2
2017-12-28T17:15:02.760Z,3.0
2017-12-28T17:20:03.291Z,3.0
2017-12-28T17:25:02.737Z,2.9
2017-12-28T17:30:02.372Z,3.0
2017-12-28T17:35:03.024Z,3.0
2017-12-28T17:40:02.532Z,2.9
2017-12-28T17:45:03.058Z,2.9
2017-12-28T17:50:02.670Z,2.9
2017-12-28T17:55:03.126Z,2.9
2017-12-28T18:00:02.574Z,3.0
2017-12-28T18:05:03.040Z,3.2
2017-12-28T18:10:02.614Z,3.2
2017-12-28T18:15:03.017Z,3.2
2017-12-28T18:20:02.611Z,3.2
2017-12-28T18:25:03.201Z,3.0
2017-12-28T18:30:02.670Z,3.0
2017-12-28T18:35:03.226Z,3.0
2017-12-28T18:40:02.804Z,3.0
2017-12-28T18:45:02.449Z,3.0
2017-12-28T18:50:02.892Z,2.9
2017-12-28T19:00:02.941Z,2.9
2017-12-28T19:05:02.421Z,2.7
2017-12-28T19:10:02.985Z,2.7
2017-12-28T19:15:02.609Z,2.7
2017-12-28T19:20:03.275Z,2.9
2017-12-28T19:25:02.881Z,2.9
2017-12-28T19:30:02.385Z,2.9
2017-12-28T19:35:02.886Z,2.9
2017-12-28T19:40:02.845Z,3.0
2017-12-28T19:45:02.543Z,3.0
2017-12-28T19:50:03.236Z,3.0
2017-12-28T19:55:02.699Z,3.0
2017-12-28T20:00:03.303Z,3.2
2017-12-28T20:05:02.751Z,3.0
2017-12-28T20:10:02.519Z,3.2
2017-12-28T20:15:03.208Z,3.2
2017-12-28T20:20:02.726Z,3.2
2017-12-28T20:25:02.459Z,3.2
2017-12-28T20:30:02.828Z,3.2
2017-12-28T20:35:02.601Z,3.2
2017-12-28T20:40:03.330Z,3.2
2017-12-28T20:45:02.911Z,3.0
2017-12-28T20:50:02.427Z,3.2
2017-12-28T20:55:02.972Z,3.0
2017-12-28T21:00:02.485Z,3.2
2017-12-28T21:05:03.043Z,3.2
2017-12-28T21:10:02.597Z,3.0
2017-12-28T21:15:03.160Z,3.0
2017-12-28T21:20:02.797Z,3.0
2017-12-28T21:25:02.412Z,2.9
2017-12-28T21:30:02.917Z,2.9
2017-12-28T21:35:02.622Z,2.9
2017-12-28T21:40:03.253Z,2.9
2017-12-28T21:45:02.862Z,2.9
2017-12-28T21:50:02.488Z,2.9
2017-12-28T21:55:03.159Z,2.9
2017-12-28T22:00:02.690Z,2.7
2017-12-28T22:05:03.244Z,2.7
2017-12-28T22:10:02.912Z,2.7
2017-12-28T22:15:02.460Z,2.7
2017-12-28T22:20:03.206Z,2.7
2017-12-28T22:25:02.666Z,2.5
2017-12-28T22:30:03.192Z,2.5
2017-12-28T22:35:02.679Z,2.4
2017-12-28T22:40:03.360Z,2.4
2017-12-28T22:45:02.811Z,2.4
2017-12-28T22:50:03.267Z,2.4
2017-12-28T22:55:02.863Z,2.4
2017-12-28T23:00:02.380Z,2.4
2017-12-28T23:05:03.148Z,2.0
2017-12-28T23:10:02.837Z,2.0
2017-12-28T23:15:03.369Z,2.0
2017-12-28T23:20:02.949Z,2.0
2017-12-28T23:25:02.450Z,1.8
2017-12-28T23:30:02.920Z,1.7
2017-12-28T23:35:02.570Z,1.7
2017-12-28T23:40:03.038Z,1.8
2017-12-28T23:45:02.689Z,1.8
2017-12-28T23:50:03.190Z,1.7
2017-12-28T23:55:02.736Z,1.7
